sensor_id;sensor_type;location;lat;lon;timestamp;pressure;altitude;pressure_sealevel;temperature;humidity
43436;BME280;36399;51.444;-2.018;2024-02-04T00:00:05;101947.63;;;9.92;100.00
43436;BME280;36399;51.444;-2.018;2024-02-04T00:02:31;101948.31;;;9.88;100.00
43436;BME280;36399;51.444;-2.018;2024-02-04T00:04:57;101958.97;;;9.91;100.00
43436;BME280;36399;51.444;-2.018;2024-02-04T00:07:23;101967.78;;;9.93;100.00
43436;BME280;36399;51.444;-2.018;2024-02-04T00:09:49;101975.53;;;9.90;100.00
43436;BME280;36399;51.444;-2.018;2024-02-04T00:12:15;101974.53;;;9.88;100.00
43436;BME280;36399;51.444;-2.018;2024-02-04T00:14:41;101973.66;;;9.88;100.00
43436;BME280;36399;51.444;-2.018;2024-02-04T00:17:07;101974.69;;;9.91;100.00
43436;BME280;36399;51.444;-2.018;2024-02-04T00:19:33;101969.44;;;9.91;100.00
43436;BME280;36399;51.444;-2.018;2024-02-04T00:21:59;101972.00;;;9.90;100.00
43436;BME280;36399;51.444;-2.018;2024-02-04T00:24:25;101958.97;;;9.91;100.00
43436;BME280;36399;51.444;-2.018;2024-02-04T00:26:51;101969.44;;;9.91;100.00
43436;BME280;36399;51.444;-2.018;2024-02-04T00:29:16;101955.38;;;9.89;100.00
43436;BME280;36399;51.444;-2.018;2024-02-04T00:31:42;101975.66;;;9.93;100.00
43436;BME280;36399;51.444;-2.018;2024-02-04T00:34:08;101982.50;;;9.90;100.00
43436;BME280;36399;51.444;-2.018;2024-02-04T00:36:34;101968.50;;;9.89;100.00
43436;BME280;36399;51.444;-2.018;2024-02-04T00:39:00;101973.75;;;9.89;100.00
43436;BME280;36399;51.444;-2.018;2024-02-04T00:41:26;101967.66;;;9.90;100.00
43436;BME280;36399;51.444;-2.018;2024-02-04T00:43:52;101966.81;;;9.91;100.00
43436;BME280;36399;51.444;-2.018;2024-02-04T00:46:18;101964.06;;;9.88;100.00
43436;BME280;36399;51.444;-2.018;2024-02-04T00:48:44;101963.38;;;9.92;100.00
43436;BME280;36399;51.444;-2.018;2024-02-04T00:51:10;101967.66;;;9.90;100.00
43436;BME280;36399;51.444;-2.018;2024-02-04T00:53:38;101962.41;;;9.90;100.00
43436;BME280;36399;51.444;-2.018;2024-02-04T00:56:05;101971.84;;;9.87;100.00
43436;BME280;36399;51.444;-2.018;2024-02-04T00:58:31;101971.81;;;9.85;100.00
43436;BME280;36399;51.444;-2.018;2024-02-04T01:00:57;101978.66;;;9.81;100.00
43436;BME280;36399;51.444;-2.018;2024-02-04T01:03:23;101976.94;;;9.82;100.00
43436;BME280;36399;51.444;-2.018;2024-02-04T01:05:50;101976.81;;;9.79;100.00
43436;BME280;36399;51.444;-2.018;2024-02-04T01:08:16;101983.47;;;9.71;100.00
43436;BME280;36399;51.444;-2.018;2024-02-04T01:10:42;101958.97;;;9.70;100.00
43436;BME280;36399;51.444;-2.018;2024-02-04T01:13:08;101957.97;;;9.67;100.00
43436;BME280;36399;51.444;-2.018;2024-02-04T01:15:34;101945.69;;;9.66;100.00
43436;BME280;36399;51.444;-2.018;2024-02-04T01:18:00;101937.75;;;9.64;100.00
43436;BME280;36399;51.444;-2.018;2024-02-04T01:20:26;101949.31;;;9.69;100.00
43436;BME280;36399;51.444;-2.018;2024-02-04T01:22:52;101938.06;;;9.72;100.00
43436;BME280;36399;51.444;-2.018;2024-02-04T01:25:18;101937.22;;;9.73;100.00
43436;BME280;36399;51.444;-2.018;2024-02-04T01:27:44;101933.66;;;9.71;100.00
43436;BME280;36399;51.444;-2.018;2024-02-04T01:30:10;101924.22;;;9.76;100.00
43436;BME280;36399;51.444;-2.018;2024-02-04T01:32:36;101922.63;;;9.79;100.00
43436;BME280;36399;51.444;-2.018;2024-02-04T01:35:02;101911.22;;;9.79;100.00
43436;BME280;36399;51.444;-2.018;2024-02-04T01:37:28;101924.41;;;9.80;100.00
43436;BME280;36399;51.444;-2.018;2024-02-04T01:39:54;101926.19;;;9.81;100.00
43436;BME280;36399;51.444;-2.018;2024-02-04T01:42:21;101927.09;;;9.82;100.00
43436;BME280;36399;51.444;-2.018;2024-02-04T01:44:47;101926.25;;;9.83;100.00
43436;BME280;36399;51.444;-2.018;2024-02-04T01:47:13;101925.53;;;9.87;100.00
43436;BME280;36399;51.444;-2.018;2024-02-04T01:49:39;101928.25;;;9.89;100.00
43436;BME280;36399;51.444;-2.018;2024-02-04T01:52:06;101930.66;;;9.84;100.00
43436;BME280;36399;51.444;-2.018;2024-02-04T01:54:33;101921.91;;;9.84;100.00
43436;BME280;36399;51.444;-2.018;2024-02-04T01:56:59;101936.03;;;9.87;100.00
43436;BME280;36399;51.444;-2.018;2024-02-04T01:59:27;101927.22;;;9.85;100.00
43436;BME280;36399;51.444;-2.018;2024-02-04T02:01:59;101932.56;;;9.88;100.00
43436;BME280;36399;51.444;-2.018;2024-02-04T02:04:25;101921.19;;;9.88;100.00
43436;BME280;36399;51.444;-2.018;2024-02-04T02:06:55;101920.28;;;9.87;100.00
43436;BME280;36399;51.444;-2.018;2024-02-04T02:09:21;101930.22;;;9.94;100.00
43436;BME280;36399;51.444;-2.018;2024-02-04T02:11:51;101931.84;;;9.91;100.00
43436;BME280;36399;51.444;-2.018;2024-02-04T02:14:23;101932.66;;;9.90;100.00
43436;BME280;36399;51.444;-2.018;2024-02-04T02:16:50;101920.44;;;9.90;100.00
43436;BME280;36399;51.444;-2.018;2024-02-04T02:19:31;101938.81;;;9.90;100.00
43436;BME280;36399;51.444;-2.018;2024-02-04T02:24:51;101913.66;;;9.95;100.00
43436;BME280;36399;51.444;-2.018;2024-02-04T02:27:17;101914.66;;;9.99;100.00
43436;BME280;36399;51.444;-2.018;2024-02-04T02:29:43;101900.75;;;10.01;100.00
43436;BME280;36399;51.444;-2.018;2024-02-04T02:32:09;101904.38;;;10.05;100.00
43436;BME280;36399;51.444;-2.018;2024-02-04T02:34:36;101896.47;;;10.03;100.00
43436;BME280;36399;51.444;-2.018;2024-02-04T02:39:45;101890.56;;;10.09;100.00
43436;BME280;36399;51.444;-2.018;2024-02-04T02:42:11;101900.81;;;10.03;100.00
43436;BME280;36399;51.444;-2.018;2024-02-04T02:44:38;101906.13;;;10.04;100.00
43436;BME280;36399;51.444;-2.018;2024-02-04T02:47:05;101898.13;;;10.01;100.00
43436;BME280;36399;51.444;-2.018;2024-02-04T02:49:32;101897.34;;;10.04;100.00
43436;BME280;36399;51.444;-2.018;2024-02-04T02:51:58;101898.97;;;10.00;100.00
43436;BME280;36399;51.444;-2.018;2024-02-04T02:54:24;101896.47;;;10.03;100.00
43436;BME280;36399;51.444;-2.018;2024-02-04T02:56:50;101901.72;;;10.03;100.00
43436;BME280;36399;51.444;-2.018;2024-02-04T02:59:16;101905.16;;;10.02;100.00
43436;BME280;36399;51.444;-2.018;2024-02-04T03:01:42;101901.66;;;10.02;100.00
43436;BME280;36399;51.444;-2.018;2024-02-04T03:04:08;101905.88;;;9.98;100.00
43436;BME280;36399;51.444;-2.018;2024-02-04T03:06:34;101897.19;;;9.99;100.00
43436;BME280;36399;51.444;-2.018;2024-02-04T03:09:00;101905.88;;;9.98;100.00
43436;BME280;36399;51.444;-2.018;2024-02-04T03:11:26;101883.22;;;10.00;100.00
43436;BME280;36399;51.444;-2.018;2024-02-04T03:13:52;101887.53;;;9.98;100.00
43436;BME280;36399;51.444;-2.018;2024-02-04T03:16:18;101880.50;;;9.97;100.00
43436;BME280;36399;51.444;-2.018;2024-02-04T03:18:45;101876.19;;;9.99;100.00
43436;BME280;36399;51.444;-2.018;2024-02-04T03:21:16;101885.75;;;9.97;100.00
43436;BME280;36399;51.444;-2.018;2024-02-04T03:23:42;101883.94;;;9.96;100.00
43436;BME280;36399;51.444;-2.018;2024-02-04T03:26:09;101863.06;;;9.99;100.00
43436;BME280;36399;51.444;-2.018;2024-02-04T03:28:36;101877.03;;;9.98;100.00
43436;BME280;36399;51.444;-2.018;2024-02-04T03:31:02;101880.59;;;10.00;100.00
43436;BME280;36399;51.444;-2.018;2024-02-04T03:33:28;101873.63;;;10.01;100.00
43436;BME280;36399;51.444;-2.018;2024-02-04T03:35:54;101882.50;;;10.04;100.00
43436;BME280;36399;51.444;-2.018;2024-02-04T03:38:20;101882.50;;;10.04;100.00
43436;BME280;36399;51.444;-2.018;2024-02-04T03:40:47;101880.88;;;10.08;100.00
43436;BME280;36399;51.444;-2.018;2024-02-04T03:43:15;101880.72;;;10.03;100.00
43436;BME280;36399;51.444;-2.018;2024-02-04T03:45:41;101856.28;;;10.04;100.00
43436;BME280;36399;51.444;-2.018;2024-02-04T03:48:07;101868.56;;;10.05;100.00
43436;BME280;36399;51.444;-2.018;2024-02-04T03:50:33;101852.75;;;10.04;100.00
43436;BME280;36399;51.444;-2.018;2024-02-04T03:52:59;101863.06;;;9.99;100.00
43436;BME280;36399;51.444;-2.018;2024-02-04T03:55:25;101861.06;;;9.92;100.00
43436;BME280;36399;51.444;-2.018;2024-02-04T03:57:51;101847.13;;;9.93;100.00
43436;BME280;36399;51.444;-2.018;2024-02-04T04:00:17;101854.25;;;9.97;100.00
43436;BME280;36399;51.444;-2.018;2024-02-04T04:02:43;101849.13;;;10.00;100.00
43436;BME280;36399;51.444;-2.018;2024-02-04T04:05:12;101845.78;;;10.04;100.00
43436;BME280;36399;51.444;-2.018;2024-02-04T04:07:39;101840.53;;;10.04;100.00
43436;BME280;36399;51.444;-2.018;2024-02-04T04:10:06;101835.34;;;10.06;100.00
43436;BME280;36399;51.444;-2.018;2024-02-04T04:12:32;101845.88;;;10.07;100.00
43436;BME280;36399;51.444;-2.018;2024-02-04T04:14:58;101842.44;;;10.08;100.00
43436;BME280;36399;51.444;-2.018;2024-02-04T04:17:24;101829.31;;;10.08;100.00
43436;BME280;36399;51.444;-2.018;2024-02-04T04:19:50;101842.31;;;10.05;100.00
43436;BME280;36399;51.444;-2.018;2024-02-04T04:22:16;101831.03;;;10.08;100.00
43436;BME280;36399;51.444;-2.018;2024-02-04T04:24:43;101834.56;;;10.08;100.00
43436;BME280;36399;51.444;-2.018;2024-02-04T04:27:09;101837.06;;;10.05;100.00
43436;BME280;36399;51.444;-2.018;2024-02-04T04:29:35;101837.13;;;10.07;100.00
43436;BME280;36399;51.444;-2.018;2024-02-04T04:32:01;101826.75;;;10.10;100.00
43436;BME280;36399;51.444;-2.018;2024-02-04T04:34:27;101811.16;;;10.15;100.00
43436;BME280;36399;51.444;-2.018;2024-02-04T04:36:52;101826.91;;;10.15;100.00
43436;BME280;36399;51.444;-2.018;2024-02-04T04:39:18;101825.16;;;10.15;100.00
43436;BME280;36399;51.444;-2.018;2024-02-04T04:41:44;101835.84;;;10.20;100.00
43436;BME280;36399;51.444;-2.018;2024-02-04T04:44:11;101825.44;;;10.21;100.00
43436;BME280;36399;51.444;-2.018;2024-02-04T04:46:40;101808.78;;;10.21;100.00
43436;BME280;36399;51.444;-2.018;2024-02-04T04:49:06;101821.19;;;10.25;100.00
43436;BME280;36399;51.444;-2.018;2024-02-04T04:51:32;101812.41;;;10.24;100.00
43436;BME280;36399;51.444;-2.018;2024-02-04T04:53:59;101817.03;;;10.31;100.00
43436;BME280;36399;51.444;-2.018;2024-02-04T04:56:25;101811.84;;;10.33;100.00
43436;BME280;36399;51.444;-2.018;2024-02-04T04:58:51;101799.66;;;10.35;100.00
43436;BME280;36399;51.444;-2.018;2024-02-04T05:01:16;101806.63;;;10.34;100.00
43436;BME280;36399;51.444;-2.018;2024-02-04T05:03:43;101799.59;;;10.33;100.00
43436;BME280;36399;51.444;-2.018;2024-02-04T05:06:09;101799.66;;;10.35;100.00
43436;BME280;36399;51.444;-2.018;2024-02-04T05:08:35;101793.56;;;10.36;100.00
43436;BME280;36399;51.444;-2.018;2024-02-04T05:11:01;101805.91;;;10.38;100.00
43436;BME280;36399;51.444;-2.018;2024-02-04T05:13:27;101806.69;;;10.36;100.00
43436;BME280;36399;51.444;-2.018;2024-02-04T05:15:53;101812.88;;;10.38;100.00
43436;BME280;36399;51.444;-2.018;2024-02-04T05:18:19;101817.31;;;10.39;100.00
43436;BME280;36399;51.444;-2.018;2024-02-04T05:20:45;101810.25;;;10.38;100.00
43436;BME280;36399;51.444;-2.018;2024-02-04T05:23:11;101819.78;;;10.34;100.00
43436;BME280;36399;51.444;-2.018;2024-02-04T05:25:37;101822.22;;;10.30;100.00
43436;BME280;36399;51.444;-2.018;2024-02-04T05:28:03;101813.41;;;10.28;100.00
43436;BME280;36399;51.444;-2.018;2024-02-04T05:30:29;101809.91;;;10.27;100.00
43436;BME280;36399;51.444;-2.018;2024-02-04T05:32:55;101826.47;;;10.26;100.00
43436;BME280;36399;51.444;-2.018;2024-02-04T05:35:21;101827.25;;;10.24;100.00
43436;BME280;36399;51.444;-2.018;2024-02-04T05:37:47;101826.38;;;10.23;100.00
43436;BME280;36399;51.444;-2.018;2024-02-04T05:40:13;101821.28;;;10.28;100.00
43436;BME280;36399;51.444;-2.018;2024-02-04T05:42:41;101815.97;;;10.26;100.00
43436;BME280;36399;51.444;-2.018;2024-02-04T05:45:07;101826.69;;;10.32;100.00
43436;BME280;36399;51.444;-2.018;2024-02-04T05:47:33;101804.81;;;10.32;100.00
43436;BME280;36399;51.444;-2.018;2024-02-04T05:49:59;101805.66;;;10.31;100.00
43436;BME280;36399;51.444;-2.018;2024-02-04T05:52:25;101794.56;;;10.39;100.00
43436;BME280;36399;51.444;-2.018;2024-02-04T05:54:51;101791.69;;;10.32;100.00
43436;BME280;36399;51.444;-2.018;2024-02-04T05:57:17;101789.16;;;10.35;100.00
43436;BME280;36399;51.444;-2.018;2024-02-04T05:59:43;101790.06;;;10.35;100.00
43436;BME280;36399;51.444;-2.018;2024-02-04T06:02:09;101797.88;;;10.34;100.00
43436;BME280;36399;51.444;-2.018;2024-02-04T06:04:35;101805.69;;;10.32;100.00
43436;BME280;36399;51.444;-2.018;2024-02-04T06:07:02;101793.34;;;10.30;100.00
43436;BME280;36399;51.444;-2.018;2024-02-04T06:09:28;101794.31;;;10.32;100.00
43436;BME280;36399;51.444;-2.018;2024-02-04T06:11:54;101796.88;;;10.30;100.00
43436;BME280;36399;51.444;-2.018;2024-02-04T06:14:20;101782.84;;;10.30;100.00
43436;BME280;36399;51.444;-2.018;2024-02-04T06:16:46;101792.41;;;10.28;100.00
43436;BME280;36399;51.444;-2.018;2024-02-04T06:19:12;101783.81;;;10.32;100.00
43436;BME280;36399;51.444;-2.018;2024-02-04T06:21:40;101779.50;;;10.34;100.00
43436;BME280;36399;51.444;-2.018;2024-02-04T06:24:06;101777.78;;;10.34;100.00
43436;BME280;36399;51.444;-2.018;2024-02-04T06:26:32;101767.16;;;10.31;100.00
43436;BME280;36399;51.444;-2.018;2024-02-04T06:28:58;101766.38;;;10.34;100.00
43436;BME280;36399;51.444;-2.018;2024-02-04T06:31:24;101760.22;;;10.33;100.00
43436;BME280;36399;51.444;-2.018;2024-02-04T06:33:50;101765.53;;;10.35;100.00
43436;BME280;36399;51.444;-2.018;2024-02-04T06:36:17;101761.91;;;10.31;100.00
43436;BME280;36399;51.444;-2.018;2024-02-04T06:38:43;101758.41;;;10.31;100.00
43436;BME280;36399;51.444;-2.018;2024-02-04T06:41:09;101766.28;;;10.31;100.00
43436;BME280;36399;51.444;-2.018;2024-02-04T06:43:37;101764.53;;;10.31;100.00
43436;BME280;36399;51.444;-2.018;2024-02-04T06:46:03;101753.19;;;10.32;100.00
43436;BME280;36399;51.444;-2.018;2024-02-04T06:48:29;101747.06;;;10.32;100.00
43436;BME280;36399;51.444;-2.018;2024-02-04T06:50:55;101747.09;;;10.33;100.00
43436;BME280;36399;51.444;-2.018;2024-02-04T06:53:21;101747.91;;;10.31;100.00
43436;BME280;36399;51.444;-2.018;2024-02-04T06:55:47;101741.81;;;10.32;100.00
43436;BME280;36399;51.444;-2.018;2024-02-04T06:58:13;101746.16;;;10.31;100.00
43436;BME280;36399;51.444;-2.018;2024-02-04T07:00:39;101735.78;;;10.34;100.00
43436;BME280;36399;51.444;-2.018;2024-02-04T07:03:05;101737.44;;;10.32;100.00
43436;BME280;36399;51.444;-2.018;2024-02-04T07:05:31;101741.81;;;10.32;100.00
43436;BME280;36399;51.444;-2.018;2024-02-04T07:07:59;101738.19;;;10.28;100.00
43436;BME280;36399;51.444;-2.018;2024-02-04T07:10:25;101739.91;;;10.28;100.00
43436;BME280;36399;51.444;-2.018;2024-02-04T07:12:51;101732.88;;;10.27;100.00
43436;BME280;36399;51.444;-2.018;2024-02-04T07:15:17;101725.84;;;10.26;100.00
43436;BME280;36399;51.444;-2.018;2024-02-04T07:17:43;101738.97;;;10.26;100.00
43436;BME280;36399;51.444;-2.018;2024-02-04T07:20:09;101735.56;;;10.28;100.00
43436;BME280;36399;51.444;-2.018;2024-02-04T07:22:35;101737.34;;;10.29;100.00
43436;BME280;36399;51.444;-2.018;2024-02-04T07:25:01;101719.91;;;10.31;100.00
43436;BME280;36399;51.444;-2.018;2024-02-04T07:27:29;101725.16;;;10.31;100.00
43436;BME280;36399;51.444;-2.018;2024-02-04T07:29:55;101732.31;;;10.35;100.00
43436;BME280;36399;51.444;-2.018;2024-02-04T07:32:23;101735.78;;;10.34;100.00
43436;BME280;36399;51.444;-2.018;2024-02-04T07:34:49;101749.06;;;10.39;100.00
43436;BME280;36399;51.444;-2.018;2024-02-04T07:37:15;101741.91;;;10.35;100.00
43436;BME280;36399;51.444;-2.018;2024-02-04T07:39:43;101741.84;;;10.33;100.00
43436;BME280;36399;51.444;-2.018;2024-02-04T07:42:09;101752.41;;;10.35;100.00
43436;BME280;36399;51.444;-2.018;2024-02-04T07:44:35;101739.09;;;10.29;100.00
43436;BME280;36399;51.444;-2.018;2024-02-04T07:47:01;101762.69;;;10.29;100.00
43436;BME280;36399;51.444;-2.018;2024-02-04T07:49:27;101753.00;;;10.26;100.00
43436;BME280;36399;51.444;-2.018;2024-02-04T07:51:53;101755.56;;;10.25;100.00
43436;BME280;36399;51.444;-2.018;2024-02-04T07:54:18;101779.19;;;10.25;100.00
43436;BME280;36399;51.444;-2.018;2024-02-04T07:56:44;101777.34;;;10.22;100.00
43436;BME280;36399;51.444;-2.018;2024-02-04T07:59:10;101779.03;;;10.20;100.00
43436;BME280;36399;51.444;-2.018;2024-02-04T08:01:36;101770.47;;;10.26;100.00
43436;BME280;36399;51.444;-2.018;2024-02-04T08:04:02;101770.63;;;10.30;100.00
43436;BME280;36399;51.444;-2.018;2024-02-04T08:06:28;101752.41;;;10.35;100.00
43436;BME280;36399;51.444;-2.018;2024-02-04T08:08:54;101776.88;;;10.34;100.00
43436;BME280;36399;51.444;-2.018;2024-02-04T08:11:21;101770.78;;;10.35;100.00
43436;BME280;36399;51.444;-2.018;2024-02-04T08:13:47;101762.03;;;10.34;100.00
43436;BME280;36399;51.444;-2.018;2024-02-04T08:16:13;101787.47;;;10.37;100.00
43436;BME280;36399;51.444;-2.018;2024-02-04T08:18:39;101780.34;;;10.33;100.00
43436;BME280;36399;51.444;-2.018;2024-02-04T08:21:05;101801.28;;;10.31;100.00
43436;BME280;36399;51.444;-2.018;2024-02-04T08:23:32;101770.72;;;10.33;100.00
43436;BME280;36399;51.444;-2.018;2024-02-04T08:25:59;101790.72;;;10.30;100.00
43436;BME280;36399;51.444;-2.018;2024-02-04T08:28:25;101766.38;;;10.34;100.00
43436;BME280;36399;51.444;-2.018;2024-02-04T08:30:51;101768.16;;;10.35;100.00
43436;BME280;36399;51.444;-2.018;2024-02-04T08:33:17;101773.50;;;10.38;100.00
43436;BME280;36399;51.444;-2.018;2024-02-04T08:35:45;101771.84;;;10.40;100.00
43436;BME280;36399;51.444;-2.018;2024-02-04T08:38:11;101773.66;;;10.41;100.00
43436;BME280;36399;51.444;-2.018;2024-02-04T08:40:37;101784.25;;;10.44;100.00
43436;BME280;36399;51.444;-2.018;2024-02-04T08:43:03;101775.31;;;10.39;100.00
43436;BME280;36399;51.444;-2.018;2024-02-04T08:45:29;101772.69;;;10.39;100.00
43436;BME280;36399;51.444;-2.018;2024-02-04T08:47:55;101781.38;;;10.38;100.00
43436;BME280;36399;51.444;-2.018;2024-02-04T08:50:21;101779.50;;;10.34;100.00
43436;BME280;36399;51.444;-2.018;2024-02-04T08:52:47;101775.94;;;10.32;100.00
43436;BME280;36399;51.444;-2.018;2024-02-04T08:55:14;101780.22;;;10.30;100.00
43436;BME280;36399;51.444;-2.018;2024-02-04T08:57:40;101757.56;;;10.32;100.00
43436;BME280;36399;51.444;-2.018;2024-02-04T09:00:06;101781.91;;;10.28;100.00
43436;BME280;36399;51.444;-2.018;2024-02-04T09:02:37;101776.78;;;10.31;100.00
43436;BME280;36399;51.444;-2.018;2024-02-04T09:05:04;101786.47;;;10.33;100.00
43436;BME280;36399;51.444;-2.018;2024-02-04T09:07:30;101789.94;;;10.32;100.00
43436;BME280;36399;51.444;-2.018;2024-02-04T09:09:57;101783.03;;;10.34;100.00
43436;BME280;36399;51.444;-2.018;2024-02-04T09:12:23;101780.44;;;10.36;100.00
43436;BME280;36399;51.444;-2.018;2024-02-04T09:14:49;101777.72;;;10.33;100.00
43436;BME280;36399;51.444;-2.018;2024-02-04T09:17:15;101781.53;;;10.41;100.00
43436;BME280;36399;51.444;-2.018;2024-02-04T09:19:41;101788.31;;;10.36;100.00
43436;BME280;36399;51.444;-2.018;2024-02-04T09:22:07;101782.22;;;10.37;100.00
43436;BME280;36399;51.444;-2.018;2024-02-04T09:24:33;101784.97;;;10.40;100.00
43436;BME280;36399;51.444;-2.018;2024-02-04T09:26:59;101803.13;;;10.34;100.00
43436;BME280;36399;51.444;-2.018;2024-02-04T09:29:25;101791.13;;;10.40;100.00
43436;BME280;36399;51.444;-2.018;2024-02-04T09:31:51;101778.66;;;10.35;100.00
43436;BME280;36399;51.444;-2.018;2024-02-04T09:34:19;101800.44;;;10.32;100.00
43436;BME280;36399;51.444;-2.018;2024-02-04T09:36:45;101805.69;;;10.32;100.00
43436;BME280;36399;51.444;-2.018;2024-02-04T09:39:11;101810.41;;;10.41;100.00
43436;BME280;36399;51.444;-2.018;2024-02-04T09:41:38;101817.53;;;10.45;100.00
43436;BME280;36399;51.444;-2.018;2024-02-04T09:44:04;101806.09;;;10.43;100.00
43436;BME280;36399;51.444;-2.018;2024-02-04T09:46:32;101810.63;;;10.47;100.00
43436;BME280;36399;51.444;-2.018;2024-02-04T09:48:58;101806.38;;;10.51;100.00
43436;BME280;36399;51.444;-2.018;2024-02-04T09:51:26;101804.63;;;10.51;100.00
43436;BME280;36399;51.444;-2.018;2024-02-04T09:53:53;101808.16;;;10.52;100.00
43436;BME280;36399;51.444;-2.018;2024-02-04T09:56:22;101810.78;;;10.52;100.00
43436;BME280;36399;51.444;-2.018;2024-02-04T09:58:48;101841.44;;;10.53;100.00
43436;BME280;36399;51.444;-2.018;2024-02-04T10:01:14;101808.34;;;10.58;100.00
43436;BME280;36399;51.444;-2.018;2024-02-04T10:03:41;101826.78;;;10.59;100.00
43436;BME280;36399;51.444;-2.018;2024-02-04T10:06:07;101810.19;;;10.60;100.00
43436;BME280;36399;51.444;-2.018;2024-02-04T10:08:35;101810.56;;;10.71;100.00
43436;BME280;36399;51.444;-2.018;2024-02-04T10:11:02;101820.16;;;10.70;100.00
43436;BME280;36399;51.444;-2.018;2024-02-04T10:13:28;101817.00;;;10.81;100.00
43436;BME280;36399;51.444;-2.018;2024-02-04T10:15:55;101810.06;;;10.83;100.00
43436;BME280;36399;51.444;-2.018;2024-02-04T10:18:21;101804.22;;;10.91;100.00
43436;BME280;36399;51.444;-2.018;2024-02-04T10:20:48;101808.56;;;10.91;100.00
43436;BME280;36399;51.444;-2.018;2024-02-04T10:23:14;101811.25;;;10.92;100.00
43436;BME280;36399;51.444;-2.018;2024-02-04T10:25:40;101807.91;;;10.96;100.00
43436;BME280;36399;51.444;-2.018;2024-02-04T10:28:06;101798.50;;;11.03;100.00
43436;BME280;36399;51.444;-2.018;2024-02-04T10:30:33;101803.00;;;11.07;100.00
43436;BME280;36399;51.444;-2.018;2024-02-04T10:33:00;101780.28;;;11.09;100.00
43436;BME280;36399;51.444;-2.018;2024-02-04T10:35:26;101793.34;;;11.06;100.00
43436;BME280;36399;51.444;-2.018;2024-02-04T10:37:52;101792.53;;;11.09;100.00
43436;BME280;36399;51.444;-2.018;2024-02-04T10:40:18;101784.00;;;11.16;100.00
43436;BME280;36399;51.444;-2.018;2024-02-04T10:42:45;101783.22;;;11.18;100.00
43436;BME280;36399;51.444;-2.018;2024-02-04T10:45:12;101782.59;;;11.27;100.00
43436;BME280;36399;51.444;-2.018;2024-02-04T10:47:47;101795.59;;;11.22;100.00
43436;BME280;36399;51.444;-2.018;2024-02-04T10:50:16;101800.16;;;11.28;100.00
43436;BME280;36399;51.444;-2.018;2024-02-04T10:52:45;101788.75;;;11.27;100.00
43436;BME280;36399;51.444;-2.018;2024-02-04T10:55:15;101788.84;;;11.30;100.00
43436;BME280;36399;51.444;-2.018;2024-02-04T10:57:43;101806.31;;;11.28;100.00
43436;BME280;36399;51.444;-2.018;2024-02-04T11:00:10;101792.41;;;11.32;100.00
43436;BME280;36399;51.444;-2.018;2024-02-04T11:02:38;101797.66;;;11.32;100.00
43436;BME280;36399;51.444;-2.018;2024-02-04T11:05:05;101795.84;;;11.30;100.00
43436;BME280;36399;51.444;-2.018;2024-02-04T11:07:33;101787.06;;;11.29;100.00
43436;BME280;36399;51.444;-2.018;2024-02-04T11:10:02;101795.09;;;11.34;100.00
43436;BME280;36399;51.444;-2.018;2024-02-04T11:12:29;101797.16;;;11.44;100.00
43436;BME280;36399;51.444;-2.018;2024-02-04T11:14:58;101803.06;;;11.37;100.00
43436;BME280;36399;51.444;-2.018;2024-02-04T11:23:19;101790.19;;;11.45;100.00
43436;BME280;36399;51.444;-2.018;2024-02-04T11:25:54;101789.22;;;11.43;100.00
43436;BME280;36399;51.444;-2.018;2024-02-04T11:28:23;101798.84;;;11.42;100.00
43436;BME280;36399;51.444;-2.018;2024-02-04T11:30:51;101780.59;;;11.47;100.00
43436;BME280;36399;51.444;-2.018;2024-02-04T11:33:19;101777.56;;;11.34;100.00
43436;BME280;36399;51.444;-2.018;2024-02-04T11:35:46;101783.84;;;11.39;100.00
43436;BME280;36399;51.444;-2.018;2024-02-04T11:38:19;101781.63;;;11.52;100.00
43436;BME280;36399;51.444;-2.018;2024-02-04T11:40:46;101768.31;;;11.46;100.00
43436;BME280;36399;51.444;-2.018;2024-02-04T11:43:14;101768.19;;;11.43;100.00
43436;BME280;36399;51.444;-2.018;2024-02-04T11:45:41;101762.06;;;11.44;100.00
43436;BME280;36399;51.444;-2.018;2024-02-04T11:48:09;101757.03;;;11.50;100.00
43436;BME280;36399;51.444;-2.018;2024-02-04T11:50:36;101745.03;;;11.59;100.00
43436;BME280;36399;51.444;-2.018;2024-02-04T11:53:11;101750.16;;;11.55;100.00
43436;BME280;36399;51.444;-2.018;2024-02-04T11:55:39;101742.44;;;11.61;100.00
43436;BME280;36399;51.444;-2.018;2024-02-04T11:58:11;101753.31;;;11.73;100.00
43436;BME280;36399;51.444;-2.018;2024-02-04T12:00:37;101739.91;;;11.64;100.00
43436;BME280;36399;51.444;-2.018;2024-02-04T12:03:07;101742.72;;;11.70;100.00
43436;BME280;36399;51.444;-2.018;2024-02-04T12:05:35;101732.22;;;11.72;100.00
43436;BME280;36399;51.444;-2.018;2024-02-04T12:08:05;101731.28;;;11.69;100.00
43436;BME280;36399;51.444;-2.018;2024-02-04T12:10:33;101728.88;;;11.77;100.00
43436;BME280;36399;51.444;-2.018;2024-02-04T12:13:02;101735.84;;;11.75;100.00
43436;BME280;36399;51.444;-2.018;2024-02-04T12:15:29;101737.72;;;11.79;100.00
43436;BME280;36399;51.444;-2.018;2024-02-04T12:18:11;101728.16;;;11.81;100.00
43436;BME280;36399;51.444;-2.018;2024-02-04T12:20:40;101719.19;;;11.76;100.00
43436;BME280;36399;51.444;-2.018;2024-02-04T12:23:07;101727.50;;;11.60;100.00
43436;BME280;36399;51.444;-2.018;2024-02-04T12:25:36;101735.41;;;11.60;100.00
43436;BME280;36399;51.444;-2.018;2024-02-04T12:28:02;101718.69;;;11.58;100.00
43436;BME280;36399;51.444;-2.018;2024-02-04T12:30:30;101714.44;;;11.63;100.00
43436;BME280;36399;51.444;-2.018;2024-02-04T12:33:00;101714.78;;;11.75;100.00
43436;BME280;36399;51.444;-2.018;2024-02-04T12:35:27;101705.88;;;11.70;100.00
43436;BME280;36399;51.444;-2.018;2024-02-04T12:37:57;101697.22;;;11.74;100.00
43436;BME280;36399;51.444;-2.018;2024-02-04T12:40:27;101703.34;;;11.73;100.00